Time;durP1;ratioP1;P1;durP2;ratioP2;P2;SDS_P1;SDS_P2;PMS_P1;PMS_P2;Temp;Humidity;BMP_temperature;BMP_pressure;BME280_temperature;BME280_humidity;BME280_pressure;Samples;Min_cycle;Max_cycle;Signal;HPM_P1;HPM_P2
2021/12/27 00:01:08;;;;;;;17.23;11.67;;;4.50;99.90;;;;;;5030785;28;20041;-75
2021/12/27 00:03:34;;;;;;;14.33;10.67;;;4.40;99.90;;;;;;5030868;28;20033;-75
2021/12/27 00:06:00;;;;;;;12.80;9.70;;;4.30;99.90;;;;;;5030317;28;20022;-75
2021/12/27 00:08:25;;;;;;;12.53;9.67;;;4.30;99.90;;;;;;5031822;28;20092;-75
2021/12/27 00:10:51;;;;;;;12.40;9.77;;;4.30;99.90;;;;;;5032197;28;20382;-75
2021/12/27 00:13:18;;;;;;;19.63;12.57;;;4.30;99.90;;;;;;5030621;28;20084;-75
2021/12/27 00:15:44;;;;;;;14.73;10.30;;;4.30;99.90;;;;;;5031923;28;20371;-75
2021/12/27 00:18:11;;;;;;;14.00;11.07;;;4.30;99.90;;;;;;5031822;28;20060;-75
2021/12/27 00:20:36;;;;;;;13.93;10.93;;;4.30;99.90;;;;;;5030896;28;20025;-75
2021/12/27 00:23:02;;;;;;;14.20;11.20;;;4.30;99.90;;;;;;5032058;28;20029;-75
2021/12/27 00:25:29;;;;;;;16.30;12.07;;;4.30;99.90;;;;;;5029970;28;20079;-75
2021/12/27 00:27:55;;;;;;;17.03;11.10;;;4.30;99.90;;;;;;5031157;28;20415;-74
2021/12/27 00:30:21;;;;;;;16.50;12.30;;;4.20;99.90;;;;;;5031883;28;20029;-75
2021/12/27 00:32:47;;;;;;;19.13;12.83;;;4.20;99.90;;;;;;5031029;28;20022;-75
2021/12/27 00:35:15;;;;;;;19.07;13.93;;;4.20;99.90;;;;;;5031889;28;20029;-75
2021/12/27 00:37:41;;;;;;;23.50;15.10;;;4.20;99.90;;;;;;5031906;28;20025;-75
2021/12/27 00:40:09;;;;;;;20.33;15.47;;;4.20;99.90;;;;;;5031859;28;20021;-75
2021/12/27 00:42:35;;;;;;;22.07;16.00;;;4.20;99.90;;;;;;5031815;28;20057;-74
2021/12/27 00:45:01;;;;;;;19.63;14.30;;;4.20;99.90;;;;;;5050957;28;20025;-75
2021/12/27 00:47:26;;;;;;;20.07;13.70;;;4.20;99.90;;;;;;5035337;28;20079;-74
2021/12/27 00:49:52;;;;;;;19.50;13.00;;;4.20;99.90;;;;;;5050998;28;20107;-75
2021/12/27 00:52:18;;;;;;;18.13;13.43;;;4.20;99.90;;;;;;5035745;28;20025;-75
2021/12/27 00:54:43;;;;;;;16.70;12.40;;;4.20;99.90;;;;;;5050773;28;20090;-74
2021/12/27 00:57:09;;;;;;;13.10;10.20;;;4.20;99.90;;;;;;5034218;28;20068;-75
2021/12/27 00:59:34;;;;;;;15.27;11.60;;;4.20;99.90;;;;;;5035204;28;20113;-76
2021/12/27 01:02:00;;;;;;;15.43;11.47;;;4.20;99.90;;;;;;5050515;28;20022;-76
2021/12/27 01:04:26;;;;;;;18.00;12.07;;;4.20;99.90;;;;;;5035019;28;20056;-76
2021/12/27 01:06:52;;;;;;;15.57;11.40;;;4.20;99.90;;;;;;5035213;28;20025;-74
2021/12/27 01:09:32;;;;;;;15.60;11.87;;;4.20;99.90;;;;;;5035091;28;20041;-76
2021/12/27 01:14:55;;;;;;;16.30;11.70;;;4.20;99.90;;;;;;5035164;28;20123;-75
2021/12/27 01:17:20;;;;;;;15.07;11.53;;;4.10;99.90;;;;;;5015419;28;20045;-75
2021/12/27 01:19:46;;;;;;;16.10;12.47;;;4.10;99.90;;;;;;5014315;28;20466;-75
2021/12/27 01:22:12;;;;;;;16.73;12.57;;;4.10;99.90;;;;;;5015369;28;20083;-75
2021/12/27 01:24:37;;;;;;;15.83;11.93;;;4.10;99.90;;;;;;5027796;28;20112;-76
2021/12/27 01:27:03;;;;;;;17.53;13.13;;;4.10;99.90;;;;;;5035034;28;20392;-76
2021/12/27 01:29:29;;;;;;;18.90;13.57;;;4.00;99.90;;;;;;5035003;28;20029;-75
2021/12/27 01:31:55;;;;;;;17.77;12.40;;;4.00;99.90;;;;;;5034814;28;20539;-75
2021/12/27 01:34:23;;;;;;;15.20;11.83;;;4.00;99.90;;;;;;5034888;28;20513;-76
2021/12/27 01:36:48;;;;;;;16.60;12.30;;;4.10;99.90;;;;;;5034828;28;20063;-76
2021/12/27 01:39:14;;;;;;;15.53;11.63;;;4.20;99.90;;;;;;5033332;28;20026;-76
2021/12/27 01:41:39;;;;;;;13.83;10.10;;;4.10;99.90;;;;;;5033328;28;20025;-75
2021/12/27 01:44:06;;;;;;;15.80;12.20;;;4.20;99.90;;;;;;5034396;28;20033;-76
2021/12/27 01:46:32;;;;;;;14.43;11.40;;;4.20;99.90;;;;;;5034392;28;20080;-76
2021/12/27 01:48:59;;;;;;;17.40;13.00;;;4.20;99.90;;;;;;5034743;28;20018;-75
2021/12/27 01:51:27;;;;;;;15.73;11.87;;;4.10;99.90;;;;;;5049840;28;20026;-76
2021/12/27 01:53:54;;;;;;;16.03;11.23;;;4.10;99.90;;;;;;5033606;28;20026;-75
2021/12/27 01:56:24;;;;;;;18.33;12.80;;;4.20;99.90;;;;;;5033026;28;20030;-76
2021/12/27 01:58:51;;;;;;;20.03;13.60;;;4.20;99.90;;;;;;5034416;28;20101;-75
2021/12/27 02:01:17;;;;;;;17.90;13.37;;;4.10;99.90;;;;;;5034339;28;20481;-75
2021/12/27 02:03:43;;;;;;;19.67;13.50;;;4.10;99.90;;;;;;5034210;28;20061;-76
2021/12/27 02:06:11;;;;;;;20.20;14.43;;;4.10;99.90;;;;;;5032613;28;20119;-76
2021/12/27 02:08:41;;;;;;;17.93;12.37;;;4.10;99.90;;;;;;5032613;28;20045;-75
2021/12/27 02:11:08;;;;;;;16.63;12.77;;;4.10;99.90;;;;;;5034205;28;20044;-75
2021/12/27 02:13:37;;;;;;;16.63;12.07;;;4.10;99.90;;;;;;5032830;28;20040;-75
2021/12/27 02:16:05;;;;;;;16.07;12.57;;;4.00;99.90;;;;;;5032681;28;20036;-75
2021/12/27 02:18:30;;;;;;;18.57;14.07;;;4.00;99.90;;;;;;5033816;28;20021;-75
2021/12/27 02:20:56;;;;;;;18.10;13.93;;;4.00;99.90;;;;;;5032834;28;20084;-75
2021/12/27 02:23:23;;;;;;;19.20;12.87;;;4.00;99.90;;;;;;5033708;28;20025;-75
2021/12/27 02:25:51;;;;;;;17.60;12.00;;;4.00;99.90;;;;;;5032284;28;20033;-75
2021/12/27 02:28:18;;;;;;;18.97;13.80;;;4.10;99.90;;;;;;5033577;28;20025;-75
2021/12/27 02:30:45;;;;;;;19.70;14.20;;;4.10;99.90;;;;;;5033833;28;20021;-75
2021/12/27 02:33:12;;;;;;;22.93;16.50;;;4.10;99.90;;;;;;5033278;28;20037;-75
2021/12/27 02:35:55;;;;;;;23.37;16.57;;;4.10;99.90;;;;;;5033605;28;20040;-74
2021/12/27 02:38:33;;;;;;;19.40;15.30;;;4.00;99.90;;;;;;5033430;28;20088;-75
2021/12/27 02:40:59;;;;;;;19.23;14.73;;;4.10;99.90;;;;;;5033398;28;20494;-75
2021/12/27 02:43:27;;;;;;;19.33;14.50;;;4.00;99.90;;;;;;5033064;28;20030;-75
2021/12/27 02:45:55;;;;;;;18.30;12.67;;;4.10;99.90;;;;;;5031870;28;20033;-74
2021/12/27 02:48:28;;;;;;;20.03;13.27;;;4.10;99.90;;;;;;5033344;28;20025;-75
2021/12/27 02:50:56;;;;;;;18.97;13.47;;;4.10;99.90;;;;;;5031716;28;20021;-75
2021/12/27 02:53:23;;;;;;;17.27;12.70;;;4.10;99.90;;;;;;5032920;28;20022;-74
2021/12/27 02:55:54;;;;;;;23.23;14.93;;;4.10;99.90;;;;;;5033065;28;20100;-75
2021/12/27 02:58:20;;;;;;;15.03;12.60;;;4.00;99.90;;;;;;5031966;28;20053;-75
2021/12/27 03:00:54;;;;;;;17.23;13.10;;;4.10;99.90;;;;;;5033290;28;20140;-75
2021/12/27 03:03:20;;;;;;;18.57;13.33;;;4.10;99.90;;;;;;5031797;28;20164;-74
2021/12/27 03:05:46;;;;;;;18.10;13.67;;;4.10;99.90;;;;;;5032067;28;20025;-74
2021/12/27 03:08:15;;;;;;;22.07;13.73;;;4.10;99.90;;;;;;5033044;28;20026;-75
2021/12/27 03:10:46;;;;;;;19.50;14.07;;;4.00;99.90;;;;;;5033094;28;20025;-75
2021/12/27 03:13:23;;;;;;;19.23;14.03;;;4.00;99.90;;;;;;5032550;28;20028;-74
2021/12/27 03:15:54;;;;;;;20.50;14.60;;;4.00;99.90;;;;;;5032846;28;20029;-75
2021/12/27 03:18:20;;;;;;;22.00;15.13;;;3.90;99.90;;;;;;5032715;28;20061;-74
2021/12/27 03:20:46;;;;;;;20.30;14.53;;;3.90;99.90;;;;;;5032804;28;20419;-75
2021/12/27 03:23:12;;;;;;;20.40;14.43;;;3.90;99.90;;;;;;5032829;28;20034;-75
2021/12/27 03:25:39;;;;;;;18.73;13.57;;;3.90;99.90;;;;;;5032378;28;20293;-75
2021/12/27 03:28:05;;;;;;;20.47;14.13;;;3.90;99.90;;;;;;5032305;28;20029;-75
2021/12/27 03:30:31;;;;;;;16.70;12.67;;;3.90;99.90;;;;;;5032538;28;20075;-75
2021/12/27 03:32:57;;;;;;;19.13;13.63;;;3.90;99.90;;;;;;5032777;28;20022;-75
2021/12/27 03:35:28;;;;;;;16.80;13.03;;;3.90;99.90;;;;;;5032542;28;20034;-75
2021/12/27 03:37:58;;;;;;;18.23;13.77;;;3.90;99.90;;;;;;5032523;28;20429;-75
2021/12/27 03:40:26;;;;;;;20.07;13.77;;;3.90;99.90;;;;;;5031333;28;20064;-74
2021/12/27 03:42:54;;;;;;;19.40;14.20;;;3.80;99.90;;;;;;5030887;28;20112;-75
2021/12/27 03:45:24;;;;;;;20.30;14.53;;;3.80;99.90;;;;;;5030801;28;20030;-74
2021/12/27 03:47:52;;;;;;;20.47;15.43;;;3.80;99.90;;;;;;5031274;28;20386;-75
2021/12/27 03:50:18;;;;;;;20.27;14.67;;;3.80;99.90;;;;;;5032402;28;20052;-75
2021/12/27 03:52:44;;;;;;;19.03;14.03;;;3.80;99.90;;;;;;5032337;28;20408;-75
2021/12/27 03:55:10;;;;;;;20.47;14.57;;;3.80;99.90;;;;;;5032258;28;20112;-76
2021/12/27 03:57:39;;;;;;;19.53;14.10;;;3.80;99.90;;;;;;5032284;28;20462;-75
2021/12/27 04:00:26;;;;;;;23.03;14.57;;;3.80;99.90;;;;;;5031887;28;20030;-75
2021/12/27 04:02:57;;;;;;;21.20;14.80;;;3.80;99.90;;;;;;5032234;28;20026;-75
2021/12/27 04:05:26;;;;;;;20.00;14.00;;;3.80;99.90;;;;;;5032066;28;20072;-74
2021/12/27 04:08:00;;;;;;;23.60;14.30;;;3.80;99.90;;;;;;5030779;28;20060;-74
2021/12/27 04:10:27;;;;;;;18.00;13.80;;;3.80;99.90;;;;;;5030972;28;20540;-74
2021/12/27 04:12:52;;;;;;;19.60;14.00;;;3.80;99.90;;;;;;5032447;28;20112;-74
2021/12/27 04:15:18;;;;;;;18.87;12.47;;;3.80;99.90;;;;;;5031853;28;20092;-75
2021/12/27 04:17:43;;;;;;;19.43;13.53;;;3.80;99.90;;;;;;5032798;28;20029;-75
2021/12/27 04:20:09;;;;;;;16.40;11.97;;;3.70;99.90;;;;;;5036057;28;20037;-75
2021/12/27 04:22:35;;;;;;;15.73;12.00;;;3.70;99.90;;;;;;5035978;28;20026;-75
2021/12/27 04:25:01;;;;;;;16.50;11.70;;;3.60;99.90;;;;;;5034318;28;20037;-75
2021/12/27 04:27:26;;;;;;;16.67;12.07;;;3.60;99.90;;;;;;5034441;28;20025;-75
2021/12/27 04:29:52;;;;;;;15.03;10.77;;;3.50;99.90;;;;;;5035800;28;20029;-75
2021/12/27 04:32:18;;;;;;;16.00;11.23;;;3.50;99.90;;;;;;5035630;28;20021;-75
2021/12/27 04:34:44;;;;;;;15.83;11.30;;;3.40;99.90;;;;;;5035860;28;20079;-75
2021/12/27 04:37:09;;;;;;;21.57;11.63;;;3.40;99.90;;;;;;5034065;28;20025;-75
2021/12/27 04:39:35;;;;;;;15.77;11.27;;;3.40;99.90;;;;;;5035452;28;20474;-75
2021/12/27 04:42:01;;;;;;;17.90;10.47;;;3.30;99.90;;;;;;5035329;28;20026;-75
2021/12/27 04:44:27;;;;;;;14.93;10.70;;;3.30;99.90;;;;;;5034606;28;20515;-75
2021/12/27 04:46:53;;;;;;;15.30;10.40;;;3.30;99.90;;;;;;5035362;28;20102;-75
2021/12/27 04:49:18;;;;;;;17.10;10.90;;;3.20;99.90;;;;;;5034344;28;20387;-76
2021/12/27 04:51:44;;;;;;;16.70;11.77;;;3.20;99.90;;;;;;5033983;28;20537;-75
2021/12/27 04:54:10;;;;;;;18.83;11.97;;;3.20;99.90;;;;;;5034298;28;20105;-76
2021/12/27 04:56:36;;;;;;;38.07;20.77;;;3.20;99.90;;;;;;5035474;28;20075;-75
2021/12/27 04:59:02;;;;;;;24.67;16.20;;;3.30;99.90;;;;;;5033930;28;20025;-75
2021/12/27 05:01:28;;;;;;;18.33;12.73;;;3.30;99.90;;;;;;5035289;28;20049;-75
2021/12/27 05:03:53;;;;;;;22.13;13.03;;;3.30;99.90;;;;;;5035343;28;20074;-76
2021/12/27 05:06:19;;;;;;;18.00;11.87;;;3.30;99.90;;;;;;5035053;28;20033;-75
2021/12/27 05:08:45;;;;;;;17.97;11.70;;;3.30;99.90;;;;;;5034094;28;20153;-76
2021/12/27 05:11:10;;;;;;;17.07;11.30;;;3.40;99.90;;;;;;5035051;28;20021;-76
2021/12/27 05:13:36;;;;;;;18.37;12.10;;;3.40;99.90;;;;;;5033813;28;20179;-76
2021/12/27 05:16:03;;;;;;;17.77;11.43;;;3.40;99.90;;;;;;5035345;28;20473;-76
2021/12/27 05:18:28;;;;;;;16.67;10.27;;;3.40;99.90;;;;;;5035089;28;20134;-75
2021/12/27 05:20:54;;;;;;;20.93;11.07;;;3.40;99.90;;;;;;5035262;28;20469;-76
2021/12/27 05:23:20;;;;;;;16.53;10.23;;;3.50;99.90;;;;;;5033678;28;20036;-75
2021/12/27 05:25:46;;;;;;;13.80;9.73;;;3.50;99.90;;;;;;5033679;28;20506;-76
2021/12/27 05:28:12;;;;;;;16.77;11.17;;;3.50;99.90;;;;;;5034497;28;20188;-76
2021/12/27 05:30:39;;;;;;;17.67;11.13;;;3.50;99.90;;;;;;5033086;28;20510;-75
2021/12/27 05:33:05;;;;;;;13.23;8.63;;;3.50;99.90;;;;;;5035031;28;20098;-75
2021/12/27 05:35:30;;;;;;;11.93;8.43;;;3.50;99.90;;;;;;5035146;28;20489;-75
2021/12/27 05:37:56;;;;;;;11.50;8.07;;;3.50;99.90;;;;;;5035176;28;20029;-74
2021/12/27 05:40:23;;;;;;;11.07;8.47;;;3.60;99.90;;;;;;5034739;28;20025;-74
2021/12/27 05:42:51;;;;;;;11.97;8.73;;;3.60;99.90;;;;;;5034698;28;20033;-74
2021/12/27 05:45:17;;;;;;;14.87;9.00;;;3.60;99.90;;;;;;5034689;28;20384;-74
2021/12/27 05:47:44;;;;;;;11.03;8.43;;;3.60;99.90;;;;;;5033517;28;20029;-75
2021/12/27 05:50:11;;;;;;;12.73;8.63;;;3.60;99.90;;;;;;5034937;28;20029;-74
2021/12/27 05:52:37;;;;;;;9.97;7.63;;;3.60;99.90;;;;;;5033134;28;20030;-74
2021/12/27 05:55:04;;;;;;;14.37;11.47;;;3.60;99.90;;;;;;5034703;28;20029;-75
2021/12/27 05:57:30;;;;;;;11.80;9.47;;;3.60;99.90;;;;;;5034794;28;20079;-75
2021/12/27 05:59:57;;;;;;;11.97;8.40;;;3.40;99.90;;;;;;5033381;28;20029;-75
2021/12/27 06:02:23;;;;;;;11.13;9.00;;;3.40;99.90;;;;;;5033330;28;20036;-74
2021/12/27 06:04:49;;;;;;;16.00;14.27;;;3.40;99.90;;;;;;5031942;28;20494;-74
2021/12/27 06:07:15;;;;;;;15.43;9.80;;;3.30;99.90;;;;;;5031803;28;20053;-75
2021/12/27 06:09:40;;;;;;;12.90;8.50;;;3.20;99.90;;;;;;5033850;28;20501;-75
2021/12/27 06:12:06;;;;;;;8.97;8.03;;;3.10;99.90;;;;;;5033738;28;20501;-74
2021/12/27 06:14:32;;;;;;;11.73;9.23;;;3.10;99.90;;;;;;5033561;28;20030;-75
2021/12/27 06:16:58;;;;;;;11.23;9.10;;;3.10;99.90;;;;;;5030416;28;20052;-74
2021/12/27 06:19:25;;;;;;;10.53;8.67;;;3.00;99.90;;;;;;5032759;28;20036;-74
2021/12/27 06:21:51;;;;;;;10.20;8.30;;;2.90;99.90;;;;;;5032043;28;20466;-74
2021/12/27 06:24:17;;;;;;;10.83;8.60;;;2.90;99.90;;;;;;5032558;28;20037;-75
2021/12/27 06:26:43;;;;;;;8.70;7.27;;;2.80;99.90;;;;;;5032870;28;20021;-74
2021/12/27 06:29:08;;;;;;;9.03;7.03;;;2.80;99.90;;;;;;5031758;28;20531;-75
2021/12/27 06:31:39;;;;;;;9.23;7.30;;;2.80;99.90;;;;;;5032697;28;20029;-75
2021/12/27 06:34:05;;;;;;;10.60;7.80;;;2.70;99.90;;;;;;5030854;28;20022;-76
2021/12/27 06:36:32;;;;;;;9.90;7.50;;;2.60;99.90;;;;;;5031136;28;20025;-74
2021/12/27 06:38:58;;;;;;;10.63;7.40;;;2.60;99.90;;;;;;5031243;28;20389;-75
2021/12/27 06:41:40;;;;;;;11.87;6.80;;;2.50;99.90;;;;;;5029857;28;20129;-75
2021/12/27 06:44:06;;;;;;;11.07;6.90;;;2.50;99.90;;;;;;5029406;28;20524;-75
2021/12/27 06:46:32;;;;;;;12.10;8.00;;;2.40;99.90;;;;;;5031159;28;20041;-76
2021/12/27 06:48:57;;;;;;;12.77;9.33;;;2.40;99.90;;;;;;5030621;28;20080;-78
2021/12/27 06:51:23;;;;;;;16.70;10.77;;;2.40;99.90;;;;;;5031043;28;20026;-74
2021/12/27 06:53:49;;;;;;;19.87;9.90;;;2.40;99.90;;;;;;5030724;28;20013;-78
2021/12/27 06:56:15;;;;;;;19.07;10.87;;;2.40;99.90;;;;;;5027536;28;20047;-78
2021/12/27 06:58:40;;;;;;;17.20;10.17;;;2.40;99.90;;;;;;5027969;28;20593;-78
2021/12/27 07:01:07;;;;;;;32.57;10.00;;;2.30;99.90;;;;;;5042068;28;20091;-78
2021/12/27 07:03:32;;;;;;;24.33;9.43;;;2.40;99.90;;;;;;5026867;28;20025;-77
2021/12/27 07:05:59;;;;;;;17.40;9.40;;;2.40;99.90;;;;;;5026891;28;20083;-77
2021/12/27 07:08:24;;;;;;;39.83;8.07;;;2.30;99.90;;;;;;5028737;28;20358;-77
2021/12/27 07:10:50;;;;;;;43.17;10.23;;;2.50;99.90;;;;;;5028726;28;20026;-78
2021/12/27 07:13:16;;;;;;;17.33;10.83;;;2.50;99.90;;;;;;5028939;28;20029;-77
2021/12/27 07:15:42;;;;;;;112.50;14.07;;;2.40;99.90;;;;;;5029542;28;20029;-76
2021/12/27 07:18:12;;;;;;;26.90;11.60;;;2.40;99.90;;;;;;5029503;28;20025;-77
2021/12/27 07:20:38;;;;;;;24.73;11.63;;;2.30;99.90;;;;;;5026094;28;20472;-77
2021/12/27 07:23:06;;;;;;;114.20;13.97;;;2.40;99.90;;;;;;5027417;28;20116;-77
2021/12/27 07:25:32;;;;;;;21.67;11.70;;;2.40;99.90;;;;;;5026795;28;20091;-76
2021/12/27 07:28:01;;;;;;;27.77;11.83;;;2.40;99.90;;;;;;5028490;28;20533;-75
2021/12/27 07:30:30;;;;;;;90.17;15.53;;;2.50;99.90;;;;;;5027236;28;20041;-74
2021/12/27 07:32:57;;;;;;;79.97;14.40;;;2.50;99.90;;;;;;5026974;28;20083;-76
2021/12/27 07:35:26;;;;;;;32.83;15.23;;;2.50;99.90;;;;;;5027945;28;20033;-74
2021/12/27 07:37:52;;;;;;;20.53;14.20;;;2.40;99.90;;;;;;5027658;28;20029;-72
2021/12/27 07:40:17;;;;;;;19.30;13.53;;;2.50;99.90;;;;;;5027580;28;20109;-72
2021/12/27 07:42:43;;;;;;;22.27;14.50;;;2.50;99.90;;;;;;5027078;28;20033;-72
2021/12/27 07:45:09;;;;;;;23.40;14.77;;;2.60;99.90;;;;;;5027509;28;20037;-73
2021/12/27 07:47:35;;;;;;;19.23;13.87;;;2.60;99.90;;;;;;5026257;28;20087;-73
2021/12/27 07:50:00;;;;;;;19.77;14.87;;;2.60;99.90;;;;;;5025049;28;20032;-73
2021/12/27 07:52:26;;;;;;;22.60;15.10;;;2.70;99.90;;;;;;5025514;28;20040;-71
2021/12/27 07:54:52;;;;;;;21.70;15.10;;;2.70;99.90;;;;;;5043348;28;20359;-74
2021/12/27 07:57:17;;;;;;;22.27;14.73;;;2.80;99.90;;;;;;5027072;28;20036;-75
2021/12/27 07:59:47;;;;;;;19.67;14.93;;;2.80;99.90;;;;;;5023001;28;20068;-74
2021/12/27 08:02:14;;;;;;;19.60;14.73;;;2.80;99.90;;;;;;5023498;28;20083;-74
2021/12/27 08:04:40;;;;;;;19.23;13.73;;;2.80;99.90;;;;;;5021150;28;20810;-73
2021/12/27 08:07:07;;;;;;;16.20;12.37;;;2.80;99.90;;;;;;5025548;28;20053;-73
2021/12/27 08:09:33;;;;;;;15.47;11.50;;;2.80;99.90;;;;;;5025041;28;20509;-73
2021/12/27 08:11:59;;;;;;;15.00;11.87;;;2.80;99.90;;;;;;5022731;28;20097;-73
2021/12/27 08:14:24;;;;;;;16.63;12.57;;;2.80;99.90;;;;;;5024477;28;20426;-74
2021/12/27 08:16:50;;;;;;;18.20;13.57;;;2.70;99.90;;;;;;5025881;28;20393;-73
2021/12/27 08:19:15;;;;;;;17.67;13.13;;;2.60;99.90;;;;;;5024028;28;20025;-73
2021/12/27 08:21:41;;;;;;;20.00;15.00;;;2.60;99.90;;;;;;5022329;28;20057;-73
2021/12/27 08:24:07;;;;;;;17.27;13.73;;;2.60;99.90;;;;;;5025248;28;20054;-73
2021/12/27 08:26:36;;;;;;;20.67;14.83;;;2.60;99.90;;;;;;5025736;28;20034;-73
2021/12/27 08:29:05;;;;;;;18.63;14.20;;;2.60;99.90;;;;;;5025800;28;20056;-73
2021/12/27 08:31:32;;;;;;;16.57;13.70;;;2.60;99.90;;;;;;5027737;28;20040;-75
2021/12/27 08:33:57;;;;;;;17.80;14.33;;;2.60;99.90;;;;;;5023064;28;20029;-74
2021/12/27 08:36:23;;;;;;;18.57;14.70;;;2.60;99.90;;;;;;5023468;28;20060;-74
2021/12/27 08:38:50;;;;;;;15.90;13.63;;;2.60;99.90;;;;;;5024525;28;20021;-75
2021/12/27 08:41:16;;;;;;;19.03;14.30;;;2.60;99.90;;;;;;5022811;28;20445;-74
2021/12/27 08:43:42;;;;;;;16.90;14.00;;;2.60;99.90;;;;;;5023646;28;20080;-67
2021/12/27 08:46:08;;;;;;;15.83;13.50;;;2.70;99.90;;;;;;5023418;28;20118;-75
2021/12/27 08:48:34;;;;;;;13.47;11.43;;;2.80;99.90;;;;;;5025187;28;20151;-75
2021/12/27 08:51:00;;;;;;;16.60;11.37;;;2.80;99.90;;;;;;5024655;28;20164;-76
2021/12/27 08:53:26;;;;;;;14.17;10.70;;;2.80;99.90;;;;;;5023968;28;20064;-75
2021/12/27 08:55:51;;;;;;;16.00;12.63;;;2.80;99.90;;;;;;5024948;28;20065;-75
2021/12/27 08:58:17;;;;;;;12.83;10.80;;;2.80;99.90;;;;;;5024637;28;20029;-75
2021/12/27 09:00:43;;;;;;;13.37;10.77;;;2.90;99.90;;;;;;5024633;28;20044;-76
2021/12/27 09:03:11;;;;;;;14.80;11.07;;;3.00;99.90;;;;;;5023915;28;20040;-75
2021/12/27 09:05:41;;;;;;;15.63;11.70;;;3.00;99.90;;;;;;5028446;28;20812;-77
2021/12/27 09:08:08;;;;;;;14.67;12.73;;;3.10;99.90;;;;;;5027698;28;20029;-77
2021/12/27 09:10:34;;;;;;;13.40;10.50;;;3.10;99.90;;;;;;5026204;28;20087;-77
2021/12/27 09:13:00;;;;;;;14.60;11.13;;;3.20;99.90;;;;;;5027553;28;20040;-76
2021/12/27 09:15:27;;;;;;;12.70;10.63;;;3.30;99.90;;;;;;5028070;28;20109;-76
2021/12/27 09:17:53;;;;;;;14.10;10.53;;;3.40;99.90;;;;;;5027937;28;20057;-76
2021/12/27 09:20:19;;;;;;;14.30;11.07;;;3.50;99.90;;;;;;5024575;28;20057;-77
2021/12/27 09:22:44;;;;;;;15.60;10.77;;;3.60;99.90;;;;;;5027301;28;20029;-77
2021/12/27 09:25:10;;;;;;;29.70;17.23;;;3.70;99.90;;;;;;5030691;28;20119;-76
2021/12/27 09:27:36;;;;;;;19.73;13.10;;;4.00;99.90;;;;;;5028187;28;20448;-77
2021/12/27 09:30:03;;;;;;;55.53;31.23;;;4.10;99.90;;;;;;5026735;28;20029;-77
2021/12/27 09:32:28;;;;;;;12.90;8.33;;;4.30;99.90;;;;;;5027389;28;20053;-76
2021/12/27 09:34:54;;;;;;;10.27;8.30;;;4.40;99.90;;;;;;5026103;28;20248;-76
2021/12/27 09:37:20;;;;;;;11.97;8.57;;;4.40;99.90;;;;;;5027740;28;20064;-76
2021/12/27 09:39:52;;;;;;;10.33;9.00;;;4.50;99.90;;;;;;5025906;28;20033;-76
2021/12/27 09:42:18;;;;;;;12.60;9.80;;;4.40;99.90;;;;;;5026684;28;20032;-76
2021/12/27 09:44:44;;;;;;;20.80;12.87;;;4.40;99.90;;;;;;5026649;28;20040;-76
2021/12/27 09:47:10;;;;;;;15.87;12.13;;;4.40;99.90;;;;;;5027671;28;20037;-76
2021/12/27 09:49:35;;;;;;;19.23;14.97;;;4.50;99.90;;;;;;5027198;28;20591;-76
2021/12/27 09:52:01;;;;;;;13.27;9.83;;;4.50;99.90;;;;;;5027978;28;20082;-76
2021/12/27 09:54:28;;;;;;;14.33;7.97;;;4.70;99.90;;;;;;5027042;28;20034;-77
2021/12/27 09:56:54;;;;;;;12.13;9.43;;;4.90;99.90;;;;;;5029062;28;20053;-77
2021/12/27 09:59:20;;;;;;;11.60;8.90;;;5.00;99.90;;;;;;5028417;28;20357;-76
2021/12/27 10:01:46;;;;;;;8.67;7.07;;;5.20;99.90;;;;;;5029435;28;20030;-76
2021/12/27 10:04:12;;;;;;;9.00;6.27;;;5.60;99.90;;;;;;5026097;28;20045;-76
2021/12/27 10:06:38;;;;;;;12.50;8.67;;;5.80;99.90;;;;;;5026673;28;20394;-76
2021/12/27 10:09:07;;;;;;;9.37;6.73;;;6.20;99.90;;;;;;5039943;28;20458;-75
2021/12/27 10:11:38;;;;;;;14.20;7.90;;;6.60;99.90;;;;;;5035420;28;20445;-77
2021/12/27 10:14:20;;;;;;;7.10;6.00;;;6.70;99.90;;;;;;5034315;28;20080;-74
2021/12/27 10:16:48;;;;;;;7.63;6.13;;;6.60;99.90;;;;;;5035851;28;20381;-74
2021/12/27 10:19:16;;;;;;;11.57;7.57;;;6.60;99.90;;;;;;5033048;28;20497;-76
2021/12/27 10:21:46;;;;;;;9.97;7.80;;;6.60;99.90;;;;;;5035656;28;20029;-77
2021/12/27 10:24:18;;;;;;;10.43;7.63;;;6.70;99.90;;;;;;5028659;28;20684;-78
2021/12/27 10:26:47;;;;;;;17.33;9.10;;;6.60;99.90;;;;;;5030346;28;20026;-77
2021/12/27 10:29:17;;;;;;;19.00;10.77;;;6.90;99.90;;;;;;5044787;28;20025;-76
2021/12/27 10:31:53;;;;;;;15.57;8.07;;;7.20;99.90;;;;;;5030299;28;20032;-77
2021/12/27 10:34:20;;;;;;;10.30;7.40;;;7.30;99.90;;;;;;5031304;28;20094;-76
2021/12/27 10:37:07;;;;;;;10.70;8.03;;;7.30;99.90;;;;;;5031370;28;20036;-76
2021/12/27 10:39:42;;;;;;;8.97;6.53;;;7.30;99.90;;;;;;5030379;28;20386;-76
2021/12/27 10:42:09;;;;;;;9.23;6.37;;;7.30;99.90;;;;;;5025649;28;20029;-77
2021/12/27 10:44:36;;;;;;;10.87;7.60;;;7.60;99.90;;;;;;5031026;28;20037;-77
2021/12/27 10:47:03;;;;;;;10.63;8.77;;;7.60;99.90;;;;;;5030266;28;20021;-76
2021/12/27 10:49:49;;;;;;;10.03;8.00;;;7.70;99.90;;;;;;5030853;28;20062;-76
2021/12/27 10:52:15;;;;;;;13.13;10.13;;;7.60;99.90;;;;;;5030954;28;20033;-76
2021/12/27 10:54:41;;;;;;;11.73;9.40;;;7.50;99.90;;;;;;5030924;28;20493;-76
2021/12/27 10:57:07;;;;;;;13.23;9.13;;;7.40;99.90;;;;;;5029696;28;20497;-77
2021/12/27 10:59:32;;;;;;;12.60;8.37;;;7.50;99.90;;;;;;5030651;28;20021;-77
2021/12/27 11:02:13;;;;;;;11.80;7.80;;;7.60;99.90;;;;;;5031014;28;20025;-76
2021/12/27 11:04:40;;;;;;;11.87;7.87;;;7.60;99.90;;;;;;5030646;28;20104;-77
2021/12/27 11:07:06;;;;;;;10.57;7.60;;;7.70;99.90;;;;;;5030881;28;20075;-77
2021/12/27 11:09:33;;;;;;;10.33;7.63;;;7.60;99.90;;;;;;5030584;28;20407;-77
2021/12/27 11:12:00;;;;;;;12.80;8.57;;;7.60;99.90;;;;;;5029380;28;20026;-76
2021/12/27 11:14:27;;;;;;;10.97;8.53;;;7.60;99.90;;;;;;5030776;28;20486;-77
2021/12/27 11:16:53;;;;;;;12.73;8.93;;;7.80;99.90;;;;;;5029695;28;20026;-77
2021/12/27 11:19:19;;;;;;;12.83;9.60;;;7.90;99.90;;;;;;5027527;28;20379;-78
2021/12/27 11:21:47;;;;;;;13.07;9.60;;;7.90;99.90;;;;;;5027701;28;20048;-77
2021/12/27 11:24:13;;;;;;;13.33;10.00;;;8.00;99.90;;;;;;5026796;28;20028;-77
2021/12/27 11:26:41;;;;;;;16.53;10.13;;;8.10;99.90;;;;;;5026418;28;20033;-77
2021/12/27 11:29:17;;;;;;;15.73;10.10;;;8.10;99.90;;;;;;5027175;28;20022;-74
2021/12/27 11:31:47;;;;;;;13.27;9.53;;;8.10;99.90;;;;;;5027377;28;20841;-75
2021/12/27 11:34:15;;;;;;;11.47;9.23;;;8.10;99.90;;;;;;5026129;28;20052;-75
2021/12/27 11:36:53;;;;;;;11.13;8.80;;;8.30;99.90;;;;;;5026253;28;20411;-75
2021/12/27 11:39:38;;;;;;;13.23;7.80;;;8.20;99.90;;;;;;5027248;28;20029;-74
2021/12/27 11:42:07;;;;;;;;;;;8.20;99.90;;;;;;5025903;28;20057;-74
2021/12/27 11:44:45;;;;;;;12.77;7.30;;;8.30;99.90;;;;;;5025645;28;19909;-74
2021/12/27 11:47:32;;;;;;;9.27;7.60;;;8.30;99.90;;;;;;5027121;28;20071;-74
2021/12/27 11:50:07;;;;;;;10.53;8.73;;;8.50;99.90;;;;;;5026723;28;20029;-75
2021/12/27 11:52:45;;;;;;;12.68;9.00;;;8.70;99.90;;;;;;5025823;28;20037;-74
2021/12/27 11:55:14;;;;;;;11.90;8.87;;;8.70;99.90;;;;;;5027102;28;20029;-75
2021/12/27 11:57:51;;;;;;;12.00;8.70;;;8.70;99.90;;;;;;5024702;28;20125;-75
2021/12/27 12:00:17;;;;;;;9.57;8.10;;;8.80;99.90;;;;;;5041681;28;20030;-75
2021/12/27 12:02:56;;;;;;;12.17;8.83;;;8.90;99.90;;;;;;5027041;28;20033;-75
2021/12/27 12:05:39;;;;;;;10.97;7.37;;;9.00;99.90;;;;;;5042131;28;20136;-75
2021/12/27 12:08:07;;;;;;;11.13;8.43;;;9.00;99.90;;;;;;5026617;28;20102;-75
2021/12/27 12:10:34;;;;;;;9.90;7.10;;;9.00;99.90;;;;;;5026760;28;20033;-76
2021/12/27 12:13:27;;;;;;;10.57;8.10;;;9.20;99.90;;;;;;5029717;28;20083;-76
2021/12/27 12:16:07;;;;;;;10.50;7.10;;;9.30;99.90;;;;;;5028749;28;20482;-76
2021/12/27 12:18:37;;;;;;;12.93;8.27;;;9.40;99.90;;;;;;5045484;28;20026;-76
2021/12/27 12:21:03;;;;;;;10.60;7.40;;;9.30;99.90;;;;;;5030082;28;20033;-76
2021/12/27 12:23:29;;;;;;;10.80;7.07;;;9.50;99.90;;;;;;5022357;28;20104;-75
2021/12/27 12:26:03;;;;;;;10.80;7.47;;;9.50;99.90;;;;;;5029308;28;20152;-76
2021/12/27 12:28:29;;;;;;;9.73;6.80;;;9.50;99.90;;;;;;5029483;28;20386;-75
2021/12/27 12:30:55;;;;;;;9.97;6.83;;;9.60;99.90;;;;;;5027957;28;20025;-75
2021/12/27 12:33:22;;;;;;;10.07;7.17;;;9.60;99.90;;;;;;5028768;28;20025;-76
2021/12/27 12:36:04;;;;;;;8.70;6.83;;;9.60;99.90;;;;;;5033627;28;20353;-76
2021/12/27 12:38:38;;;;;;;10.87;7.00;;;9.60;99.90;;;;;;5043208;28;20140;-76
2021/12/27 12:41:07;;;;;;;9.30;7.87;;;9.50;99.90;;;;;;5029471;28;20034;-76
2021/12/27 12:43:54;;;;;;;10.63;7.20;;;9.30;99.90;;;;;;5031689;28;20087;-75
2021/12/27 12:46:21;;;;;;;9.47;7.27;;;9.30;99.90;;;;;;5030537;28;20033;-77